Time;durP1;ratioP1;P1;durP2;ratioP2;P2;SDS_P1;SDS_P2;PMS_P1;PMS_P2;Temp;Humidity;BMP_temperature;BMP_pressure;BME280_temperature;BME280_humidity;BME280_pressure;Samples;Min_cycle;Max_cycle;Signal;HPM_P1;HPM_P2
2022/06/25 00:01:11;;;;;;;26.73;5.25;;;25.80;76.80;;;;;;5014300;28;20026;-65
2022/06/25 00:03:38;;;;;;;28.30;6.32;;;25.80;77.60;;;;;;5014123;28;20034;-64
2022/06/25 00:06:05;;;;;;;26.80;6.60;;;25.70;76.80;;;;;;5012910;28;20030;-62
2022/06/25 00:08:33;;;;;;;22.67;5.18;;;25.70;77.00;;;;;;5013717;28;20048;-63
2022/06/25 00:10:59;;;;;;;22.92;4.90;;;25.70;77.00;;;;;;5013946;28;20045;-66
2022/06/25 00:13:25;;;;;;;27.75;5.30;;;25.70;77.10;;;;;;5012826;28;20038;-62
2022/06/25 00:15:51;;;;;;;20.67;5.18;;;25.70;77.30;;;;;;5013934;28;20026;-66
2022/06/25 00:18:17;;;;;;;21.75;5.60;;;25.60;77.50;;;;;;5013746;28;20037;-65
2022/06/25 00:20:44;;;;;;;22.50;4.80;;;25.60;77.50;;;;;;5013678;28;20034;-62
2022/06/25 00:23:10;;;;;;;19.08;4.75;;;25.60;77.50;;;;;;5014087;28;20164;-62
2022/06/25 00:25:36;;;;;;;27.25;5.93;;;25.60;77.50;;;;;;5013743;28;20105;-62
2022/06/25 00:28:02;;;;;;;21.15;4.93;;;25.60;77.80;;;;;;5013846;28;20053;-64
2022/06/25 00:30:28;;;;;;;24.67;5.93;;;25.60;77.90;;;;;;5013772;28;20022;-66
2022/06/25 00:32:55;;;;;;;21.27;5.38;;;25.50;78.00;;;;;;5013655;28;20385;-64
2022/06/25 00:35:21;;;;;;;22.92;4.72;;;25.50;78.20;;;;;;5013874;28;20036;-62
2022/06/25 00:37:46;;;;;;;25.25;5.00;;;25.40;78.00;;;;;;5013699;28;20030;-62
2022/06/25 00:40:12;;;;;;;23.77;5.93;;;25.40;78.30;;;;;;5013648;28;20109;-63
2022/06/25 00:42:43;;;;;;;20.10;4.85;;;25.40;78.50;;;;;;5013361;28;20041;-63
2022/06/25 00:45:09;;;;;;;23.38;5.57;;;25.30;78.50;;;;;;5013577;28;20136;-61
2022/06/25 00:47:35;;;;;;;27.85;5.65;;;25.30;78.50;;;;;;5013611;28;20120;-65
2022/06/25 00:50:00;;;;;;;19.13;4.85;;;25.30;78.60;;;;;;5013321;28;20041;-62
2022/06/25 00:52:28;;;;;;;17.63;4.93;;;25.30;78.70;;;;;;5013466;28;20038;-66
2022/06/25 00:54:58;;;;;;;18.98;5.43;;;25.30;78.80;;;;;;5012846;28;20034;-63
2022/06/25 00:57:28;;;;;;;20.65;5.25;;;25.20;78.70;;;;;;5013446;28;20030;-64
2022/06/25 01:00:01;;;;;;;20.95;6.18;;;25.20;78.90;;;;;;5013460;28;20034;-62
2022/06/25 01:02:27;;;;;;;21.63;5.63;;;25.20;79.10;;;;;;5013162;28;20552;-63
2022/06/25 01:04:52;;;;;;;14.55;4.50;;;25.10;78.90;;;;;;5013402;28;20112;-62
2022/06/25 01:07:19;;;;;;;18.05;4.53;;;25.10;78.90;;;;;;5013176;28;20408;-65
2022/06/25 01:09:49;;;;;;;21.83;5.82;;;25.10;79.00;;;;;;5012836;28;20087;-62
2022/06/25 01:12:15;;;;;;;17.98;4.72;;;25.10;79.20;;;;;;5013075;28;20057;-62
2022/06/25 01:14:40;;;;;;;24.48;5.45;;;25.00;79.00;;;;;;5012914;28;20397;-63
2022/06/25 01:17:10;;;;;;;19.15;4.80;;;25.00;79.10;;;;;;5012881;28;20033;-62
2022/06/25 01:19:37;;;;;;;22.95;4.85;;;25.00;79.20;;;;;;5013047;28;20034;-62
2022/06/25 01:22:07;;;;;;;20.15;5.15;;;25.00;79.40;;;;;;5013096;28;20500;-62
2022/06/25 01:24:33;;;;;;;24.63;6.05;;;25.00;79.50;;;;;;5012990;28;20042;-65
2022/06/25 01:26:58;;;;;;;24.23;5.25;;;24.90;79.60;;;;;;5012721;28;20053;-63
2022/06/25 01:29:25;;;;;;;20.27;5.47;;;24.90;79.60;;;;;;5012730;28;20026;-61
2022/06/25 01:31:51;;;;;;;19.33;5.55;;;24.90;79.60;;;;;;5012368;28;20068;-63
2022/06/25 01:34:17;;;;;;;20.50;5.13;;;24.80;79.70;;;;;;5013031;28;20034;-62
2022/06/25 01:36:43;;;;;;;18.15;5.50;;;24.80;79.80;;;;;;5012634;28;20034;-62
2022/06/25 01:39:09;;;;;;;24.17;5.22;;;24.80;79.90;;;;;;5012865;28;20042;-62
2022/06/25 01:41:35;;;;;;;32.53;5.95;;;24.80;80.30;;;;;;5012834;28;20065;-62
2022/06/25 01:44:01;;;;;;;18.55;4.88;;;24.80;80.20;;;;;;5012449;28;20054;-62
2022/06/25 01:46:27;;;;;;;26.33;5.18;;;24.80;80.10;;;;;;5012798;28;20088;-63
2022/06/25 01:48:53;;;;;;;18.67;4.80;;;24.80;80.30;;;;;;5012909;28;20072;-62
2022/06/25 01:51:20;;;;;;;20.70;5.63;;;24.80;80.40;;;;;;5012893;28;20488;-63
2022/06/25 01:53:45;;;;;;;23.73;5.30;;;24.70;80.30;;;;;;5012646;28;20038;-62
2022/06/25 01:56:11;;;;;;;17.52;4.85;;;24.70;80.40;;;;;;5012555;28;20366;-62
2022/06/25 01:58:37;;;;;;;19.40;4.55;;;24.70;80.30;;;;;;5012333;28;20045;-61
2022/06/25 02:01:04;;;;;;;17.30;4.60;;;24.60;80.40;;;;;;5012681;28;20034;-64
2022/06/25 02:03:30;;;;;;;25.77;5.75;;;24.60;80.50;;;;;;5012475;28;20037;-62
2022/06/25 02:05:58;;;;;;;22.70;6.00;;;24.60;80.30;;;;;;5013332;28;20373;-65
2022/06/25 02:08:29;;;;;;;17.80;4.53;;;24.60;80.30;;;;;;5015893;28;20045;-62
2022/06/25 02:10:55;;;;;;;21.38;5.05;;;24.60;80.40;;;;;;5015994;28;20081;-63
2022/06/25 02:13:21;;;;;;;19.30;5.57;;;24.60;80.40;;;;;;5015953;28;20052;-62
2022/06/25 02:15:48;;;;;;;39.05;5.78;;;24.60;80.40;;;;;;5016223;28;20101;-63
2022/06/25 02:18:13;;;;;;;18.08;4.80;;;24.60;80.40;;;;;;5015876;28;20048;-62
2022/06/25 02:20:40;;;;;;;29.35;4.95;;;24.50;80.40;;;;;;5016106;28;20030;-62
2022/06/25 02:23:07;;;;;;;27.25;5.10;;;24.50;80.40;;;;;;5016015;28;20057;-66
2022/06/25 02:25:33;;;;;;;24.63;6.45;;;24.60;80.40;;;;;;5015849;28;20038;-64
2022/06/25 02:27:59;;;;;;;25.70;5.38;;;24.50;80.40;;;;;;5015950;28;20060;-62
2022/06/25 02:30:25;;;;;;;14.05;4.35;;;24.50;80.70;;;;;;5015895;28;20104;-62
2022/06/25 02:32:50;;;;;;;19.77;5.00;;;24.50;80.50;;;;;;5015489;28;20057;-62
2022/06/25 02:35:16;;;;;;;19.75;5.43;;;24.50;80.50;;;;;;5014305;28;20033;-62
2022/06/25 02:37:42;;;;;;;26.05;4.97;;;24.40;80.60;;;;;;5015790;28;20030;-63
2022/06/25 02:40:08;;;;;;;21.63;5.45;;;24.40;80.60;;;;;;5015655;28;20283;-62
2022/06/25 02:42:35;;;;;;;24.25;6.72;;;24.40;80.20;;;;;;5015654;28;20500;-63
2022/06/25 02:45:02;;;;;;;23.33;5.70;;;24.40;80.30;;;;;;5015711;28;20069;-62
2022/06/25 02:47:27;;;;;;;13.80;5.22;;;24.40;80.40;;;;;;5015694;28;20046;-62
2022/06/25 02:49:53;;;;;;;21.27;6.15;;;24.40;80.70;;;;;;5015445;28;20106;-65
2022/06/25 02:52:19;;;;;;;19.40;5.47;;;24.30;80.50;;;;;;5015423;28;20041;-62
2022/06/25 02:54:45;;;;;;;26.35;5.82;;;24.30;80.60;;;;;;5015658;28;20030;-62
2022/06/25 02:59:54;;;;;;;24.58;5.80;;;24.20;81.20;;;;;;5015592;28;20435;-65
2022/06/25 03:02:20;;;;;;;24.33;5.63;;;24.20;81.30;;;;;;5015269;28;20070;-65
2022/06/25 03:04:46;;;;;;;15.30;4.88;;;24.20;81.40;;;;;;5015390;28;20049;-62
2022/06/25 03:07:11;;;;;;;18.77;5.40;;;24.20;81.40;;;;;;5015229;28;20049;-62
2022/06/25 03:09:37;;;;;;;23.63;7.05;;;24.20;81.30;;;;;;5015110;28;20025;-62
2022/06/25 03:12:03;;;;;;;20.65;5.15;;;24.20;81.40;;;;;;5015209;28;20073;-61
2022/06/25 03:14:29;;;;;;;29.40;5.88;;;24.20;81.60;;;;;;5014824;28;20113;-62
2022/06/25 03:16:54;;;;;;;28.58;6.88;;;24.20;81.70;;;;;;5014770;28;20113;-62
2022/06/25 03:19:20;;;;;;;21.88;6.68;;;24.10;81.80;;;;;;5015004;28;20030;-62
2022/06/25 03:21:46;;;;;;;22.40;6.10;;;24.10;82.00;;;;;;5014872;28;20038;-62
2022/06/25 03:24:12;;;;;;;23.48;6.15;;;24.10;82.30;;;;;;5014897;28;20388;-66
2022/06/25 03:26:38;;;;;;;26.65;7.10;;;24.10;82.20;;;;;;5014689;28;20045;-63
2022/06/25 03:29:04;;;;;;;32.22;6.35;;;24.10;82.10;;;;;;5013677;28;20038;-62
2022/06/25 03:31:30;;;;;;;19.98;6.35;;;24.10;82.10;;;;;;5014879;28;20033;-62
2022/06/25 03:33:56;;;;;;;21.45;5.80;;;24.10;82.00;;;;;;5014601;28;20091;-62
2022/06/25 03:36:21;;;;;;;23.60;5.45;;;24.00;81.70;;;;;;5014739;28;20117;-62
2022/06/25 03:38:47;;;;;;;22.77;5.57;;;24.00;81.70;;;;;;5014570;28;20105;-62
2022/06/25 03:43:58;;;;;;;21.50;5.63;;;24.00;81.50;;;;;;5014850;28;20077;-62
2022/06/25 03:46:23;;;;;;;20.88;5.57;;;24.00;81.50;;;;;;5014493;28;20498;-62
2022/06/25 03:48:49;;;;;;;19.75;5.32;;;24.00;81.60;;;;;;5014417;28;20136;-62
2022/06/25 03:51:15;;;;;;;17.67;5.22;;;24.00;81.70;;;;;;5014200;28;20591;-61
2022/06/25 03:53:40;;;;;;;20.77;5.13;;;24.00;81.70;;;;;;5014472;28;20061;-63
2022/06/25 03:56:06;;;;;;;21.67;5.88;;;24.00;81.90;;;;;;5014516;28;20048;-62
2022/06/25 03:58:32;;;;;;;28.75;6.63;;;24.00;81.80;;;;;;5014196;28;20038;-66
2022/06/25 04:00:58;;;;;;;28.92;7.30;;;24.00;81.90;;;;;;5014291;28;20033;-60
2022/06/25 04:03:23;;;;;;;22.73;5.78;;;24.00;82.60;;;;;;5014101;28;20477;-62
2022/06/25 04:05:49;;;;;;;25.10;5.60;;;24.00;82.10;;;;;;5014200;28;20041;-62
2022/06/25 04:08:15;;;;;;;19.52;6.75;;;24.00;82.20;;;;;;5013664;28;20072;-63
2022/06/25 04:10:42;;;;;;;17.58;5.15;;;24.00;82.20;;;;;;5013903;28;20484;-61
2022/06/25 04:13:08;;;;;;;19.73;5.47;;;24.00;82.20;;;;;;5014038;28;20045;-63
2022/06/25 04:15:35;;;;;;;19.58;5.95;;;24.00;81.80;;;;;;5013992;28;20030;-63
2022/06/25 04:18:03;;;;;;;14.60;5.47;;;23.90;81.70;;;;;;5014041;28;20066;-63
2022/06/25 04:20:28;;;;;;;17.85;4.70;;;24.00;81.90;;;;;;5014019;28;20403;-63
2022/06/25 04:22:54;;;;;;;19.52;5.05;;;24.00;81.90;;;;;;5013835;28;20041;-63
2022/06/25 04:25:20;;;;;;;18.25;4.93;;;24.00;81.90;;;;;;5013743;28;20069;-62
2022/06/25 04:30:30;;;;;;;25.38;5.20;;;24.00;81.40;;;;;;5013530;28;20495;-62
2022/06/25 04:32:55;;;;;;;19.70;4.55;;;24.00;81.40;;;;;;5013462;28;20053;-63
2022/06/25 04:35:21;;;;;;;21.05;4.63;;;24.00;81.00;;;;;;5013476;28;20535;-63
2022/06/25 04:37:47;;;;;;;19.73;5.10;;;24.00;81.00;;;;;;5013641;28;20065;-62
2022/06/25 04:40:13;;;;;;;20.00;5.10;;;24.00;80.90;;;;;;5013531;28;20088;-66
2022/06/25 04:42:39;;;;;;;19.60;4.80;;;24.00;80.50;;;;;;5013499;28;20393;-62
2022/06/25 04:45:05;;;;;;;24.83;4.78;;;24.00;80.40;;;;;;5013564;28;20526;-65
2022/06/25 04:47:31;;;;;;;24.80;5.05;;;24.00;80.10;;;;;;5013291;28;20045;-61
2022/06/25 04:49:56;;;;;;;17.95;4.90;;;24.10;80.20;;;;;;5013588;28;20388;-62
2022/06/25 04:52:22;;;;;;;20.65;5.05;;;24.10;80.10;;;;;;5013487;28;20387;-63
2022/06/25 04:54:48;;;;;;;21.38;4.53;;;24.10;79.80;;;;;;5012940;28;20034;-63
2022/06/25 04:57:13;;;;;;;20.13;4.75;;;24.10;79.50;;;;;;5013398;28;20038;-62
2022/06/25 04:59:39;;;;;;;20.92;4.78;;;24.20;79.40;;;;;;5013361;28;20081;-62
2022/06/25 05:02:05;;;;;;;23.45;4.85;;;24.20;79.50;;;;;;5013119;28;20381;-63
2022/06/25 05:04:31;;;;;;;17.92;4.80;;;24.20;79.30;;;;;;5013438;28;20034;-63
2022/06/25 05:06:58;;;;;;;24.70;4.75;;;24.20;79.20;;;;;;5013166;28;20034;-63
2022/06/25 05:09:25;;;;;;;18.67;4.47;;;24.20;79.00;;;;;;5012948;28;20033;-63
2022/06/25 05:11:51;;;;;;;14.07;4.20;;;24.20;78.80;;;;;;5013211;28;20026;-63
2022/06/25 05:14:17;;;;;;;19.55;4.82;;;24.30;78.70;;;;;;5013255;28;20100;-62
2022/06/25 05:16:42;;;;;;;17.52;5.05;;;24.30;78.50;;;;;;5012853;28;20457;-61
2022/06/25 05:19:08;;;;;;;23.33;5.20;;;24.30;78.30;;;;;;5012593;28;20116;-62
2022/06/25 05:21:34;;;;;;;20.85;4.88;;;24.30;78.40;;;;;;5012870;28;20030;-62
2022/06/25 05:24:00;;;;;;;25.80;5.82;;;24.30;78.40;;;;;;5013039;28;20125;-62
2022/06/25 05:26:25;;;;;;;29.55;6.03;;;24.40;78.80;;;;;;5012984;28;20041;-63
2022/06/25 05:28:51;;;;;;;24.45;5.82;;;24.40;79.20;;;;;;5012818;28;20092;-61
2022/06/25 05:31:17;;;;;;;30.08;5.97;;;24.40;79.30;;;;;;5011550;28;20030;-62
2022/06/25 05:33:42;;;;;;;23.50;5.90;;;24.50;79.20;;;;;;5012717;28;20057;-63
2022/06/25 05:36:08;;;;;;;18.90;5.20;;;24.50;79.30;;;;;;5012838;28;20037;-63
2022/06/25 05:38:33;;;;;;;27.23;5.93;;;24.50;79.30;;;;;;5012943;28;20045;-63
2022/06/25 05:40:59;;;;;;;26.48;6.22;;;24.50;79.20;;;;;;5015375;28;20114;-61
2022/06/25 05:43:25;;;;;;;26.67;5.97;;;24.50;79.00;;;;;;5016511;28;20084;-63
2022/06/25 05:45:50;;;;;;;19.38;5.25;;;24.50;78.90;;;;;;5016242;28;20100;-66
2022/06/25 05:48:16;;;;;;;22.42;5.15;;;24.50;78.80;;;;;;5015677;28;20046;-63
2022/06/25 05:50:42;;;;;;;28.85;5.55;;;24.60;78.50;;;;;;5015926;28;20096;-61
2022/06/25 05:53:08;;;;;;;18.52;5.20;;;24.60;78.70;;;;;;5016620;28;20030;-62
2022/06/25 05:55:34;;;;;;;23.13;5.45;;;24.60;78.60;;;;;;5016811;28;20088;-63
2022/06/25 05:58:00;;;;;;;18.30;4.95;;;24.60;78.50;;;;;;5016605;28;20052;-63
2022/06/25 06:00:26;;;;;;;23.02;5.68;;;24.70;78.20;;;;;;5016205;28;20033;-62
2022/06/25 06:02:52;;;;;;;25.20;5.88;;;24.70;78.60;;;;;;5016598;28;20038;-63
2022/06/25 06:05:18;;;;;;;20.42;5.00;;;24.80;78.70;;;;;;5016695;28;20489;-63
2022/06/25 06:07:44;;;;;;;18.63;5.07;;;24.80;78.60;;;;;;5016432;28;20172;-63
2022/06/25 06:10:10;;;;;;;22.00;5.20;;;24.80;78.30;;;;;;5016413;28;20109;-63
2022/06/25 06:12:36;;;;;;;35.55;6.38;;;24.90;78.10;;;;;;5016463;28;20427;-63
2022/06/25 06:15:02;;;;;;;23.08;5.28;;;25.00;78.20;;;;;;5016020;28;20169;-63
2022/06/25 06:17:28;;;;;;;22.77;4.88;;;25.00;78.20;;;;;;5016415;28;20149;-62
2022/06/25 06:19:54;;;;;;;25.27;5.07;;;25.00;78.00;;;;;;5016117;28;20062;-63
2022/06/25 06:22:19;;;;;;;18.17;4.60;;;25.10;77.80;;;;;;5015973;28;20037;-63
2022/06/25 06:24:45;;;;;;;25.60;4.57;;;25.20;77.90;;;;;;5016230;28;20026;-63
2022/06/25 06:27:11;;;;;;;17.17;4.22;;;25.20;77.60;;;;;;5015825;28;20129;-63
2022/06/25 06:29:36;;;;;;;23.27;4.25;;;25.20;77.10;;;;;;5016074;28;20417;-63
2022/06/25 06:32:02;;;;;;;16.85;4.25;;;25.30;76.70;;;;;;5015675;28;20042;-63
2022/06/25 06:34:28;;;;;;;15.90;4.28;;;25.30;76.40;;;;;;5015932;28;20048;-62
2022/06/25 06:36:53;;;;;;;17.17;4.40;;;25.30;76.30;;;;;;5015873;28;20033;-62
2022/06/25 06:39:19;;;;;;;20.77;4.70;;;25.30;76.30;;;;;;5015954;28;20045;-63
2022/06/25 06:41:45;;;;;;;28.77;4.40;;;25.30;76.50;;;;;;5015667;28;20030;-63
2022/06/25 06:44:11;;;;;;;18.83;4.95;;;25.30;76.70;;;;;;5015672;28;20034;-62
2022/06/25 06:46:37;;;;;;;19.25;4.78;;;25.40;77.00;;;;;;5015657;28;20033;-62
2022/06/25 06:49:02;;;;;;;27.30;5.05;;;25.40;76.30;;;;;;5015332;28;20046;-62
2022/06/25 06:51:28;;;;;;;24.63;4.60;;;25.40;76.20;;;;;;5014604;28;20042;-62
2022/06/25 06:53:53;;;;;;;14.82;3.95;;;25.50;76.30;;;;;;5014187;28;20034;-63
2022/06/25 06:56:19;;;;;;;20.23;4.50;;;25.50;76.50;;;;;;5015464;28;20038;-63
2022/06/25 06:58:45;;;;;;;16.13;3.70;;;25.60;76.40;;;;;;5015232;28;20116;-62
2022/06/25 07:01:10;;;;;;;19.30;3.20;;;25.60;75.90;;;;;;5015222;28;20041;-62
2022/06/25 07:03:36;;;;;;;16.50;3.40;;;25.70;75.10;;;;;;5015385;28;20045;-67
2022/06/25 07:06:02;;;;;;;19.50;3.80;;;25.70;74.70;;;;;;5015458;28;20040;-62
2022/06/25 07:08:27;;;;;;;20.55;3.58;;;25.80;74.50;;;;;;5015050;28;20492;-67
2022/06/25 07:10:53;;;;;;;14.30;3.42;;;25.80;73.80;;;;;;5015336;28;20061;-63
2022/06/25 07:13:19;;;;;;;17.88;3.80;;;25.80;74.00;;;;;;5015133;28;20072;-63
2022/06/25 07:15:45;;;;;;;15.43;3.42;;;25.80;73.90;;;;;;5015306;28;20037;-62
2022/06/25 07:18:10;;;;;;;17.58;3.70;;;25.80;73.50;;;;;;5015398;28;20491;-63
2022/06/25 07:20:36;;;;;;;16.83;3.60;;;25.80;72.70;;;;;;5015218;28;20505;-63
2022/06/25 07:23:02;;;;;;;13.90;3.38;;;25.70;72.80;;;;;;5015021;28;20370;-63
2022/06/25 07:25:28;;;;;;;14.45;3.20;;;25.70;72.10;;;;;;5014988;28;20421;-62
2022/06/25 07:27:53;;;;;;;15.93;3.13;;;25.70;72.20;;;;;;5015013;28;20056;-63
2022/06/25 07:30:19;;;;;;;16.27;3.65;;;25.70;72.70;;;;;;5014856;28;20030;-60
2022/06/25 07:32:45;;;;;;;19.13;3.45;;;25.60;72.60;;;;;;5014730;28;20050;-63
2022/06/25 07:35:10;;;;;;;19.33;3.78;;;25.60;72.70;;;;;;5014940;28;20026;-63
2022/06/25 07:37:36;;;;;;;15.20;3.40;;;25.60;72.90;;;;;;5014809;28;20034;-63
2022/06/25 07:40:03;;;;;;;21.42;3.33;;;25.60;73.20;;;;;;5014808;28;20101;-63
2022/06/25 07:42:32;;;;;;;18.10;3.25;;;25.70;73.50;;;;;;5013453;28;20073;-62
2022/06/25 07:44:58;;;;;;;11.23;3.10;;;25.80;73.70;;;;;;5011843;28;20174;-63
2022/06/25 07:47:24;;;;;;;14.35;2.88;;;25.90;73.40;;;;;;5011783;28;20042;-63
2022/06/25 07:52:34;;;;;;;16.17;2.85;;;26.00;71.80;;;;;;5014340;28;20040;-62
2022/06/25 07:55:00;;;;;;;16.25;2.75;;;26.10;71.90;;;;;;5014213;28;20073;-63
2022/06/25 07:57:26;;;;;;;14.75;3.22;;;26.10;71.00;;;;;;5014206;28;20033;-63
2022/06/25 07:59:52;;;;;;;11.82;2.70;;;26.20;70.80;;;;;;5014142;28;20388;-63
2022/06/25 08:02:17;;;;;;;16.70;3.30;;;26.20;70.60;;;;;;5014316;28;20042;-63
2022/06/25 08:04:43;;;;;;;13.32;2.60;;;26.30;70.40;;;;;;5013321;28;20038;-62
2022/06/25 08:07:09;;;;;;;13.07;2.45;;;26.30;69.70;;;;;;5014022;28;20040;-63
2022/06/25 08:09:34;;;;;;;11.88;2.58;;;26.30;69.80;;;;;;5013454;28;20042;-62
2022/06/25 08:12:00;;;;;;;19.25;2.40;;;26.30;70.00;;;;;;5014324;28;20515;-63
2022/06/25 08:14:26;;;;;;;10.73;2.40;;;26.30;69.40;;;;;;5014093;28;20502;-61
2022/06/25 08:16:51;;;;;;;12.25;3.13;;;26.40;68.30;;;;;;5013955;28;20030;-62
2022/06/25 08:19:17;;;;;;;14.07;2.63;;;26.40;67.60;;;;;;5013805;28;20481;-63
2022/06/25 08:21:43;;;;;;;15.35;2.75;;;26.40;66.70;;;;;;5013632;28;20070;-62
2022/06/25 08:24:08;;;;;;;9.02;2.25;;;26.40;67.10;;;;;;5012759;28;20037;-61
2022/06/25 08:26:34;;;;;;;16.45;2.50;;;26.40;67.70;;;;;;5013997;28;20036;-61
2022/06/25 08:29:00;;;;;;;12.90;2.17;;;26.50;67.00;;;;;;5013602;28;20433;-62
2022/06/25 08:31:25;;;;;;;11.45;2.60;;;26.50;65.40;;;;;;5013502;28;20061;-62
2022/06/25 08:33:51;;;;;;;9.73;2.47;;;26.60;64.80;;;;;;5013316;28;20046;-62
2022/06/25 08:36:17;;;;;;;9.52;2.25;;;26.70;63.20;;;;;;5013664;28;20487;-62
2022/06/25 08:38:42;;;;;;;12.55;2.17;;;26.80;63.90;;;;;;5013634;28;20034;-63
2022/06/25 08:41:08;;;;;;;9.70;2.20;;;26.80;63.80;;;;;;5013714;28;20030;-63
2022/06/25 08:43:34;;;;;;;14.15;2.80;;;26.90;62.10;;;;;;5013155;28;20050;-61
2022/06/25 08:46:00;;;;;;;9.35;2.00;;;26.80;62.70;;;;;;5011562;28;20030;-62
2022/06/25 08:48:31;;;;;;;13.50;2.70;;;26.80;63.30;;;;;;5012570;28;20093;-62
2022/06/25 08:50:58;;;;;;;15.82;2.58;;;26.80;63.30;;;;;;5012755;28;20083;-67
2022/06/25 08:53:29;;;;;;;14.65;2.85;;;26.80;65.20;;;;;;5012445;28;20455;-61
2022/06/25 08:55:55;;;;;;;14.63;2.90;;;26.90;66.90;;;;;;5048273;28;20025;-62
2022/06/25 08:58:21;;;;;;;13.77;2.70;;;27.00;66.90;;;;;;5052624;28;20033;-64
2022/06/25 09:00:46;;;;;;;11.90;2.15;;;27.00;67.30;;;;;;5052379;28;20032;-65
2022/06/25 09:03:12;;;;;;;15.50;2.80;;;27.00;66.30;;;;;;5052570;28;20410;-63
2022/06/25 09:05:42;;;;;;;9.38;2.63;;;27.10;65.00;;;;;;5057678;28;20261;-65
2022/06/25 09:08:13;;;;;;;14.20;2.83;;;27.20;65.70;;;;;;5071930;28;20048;-65
2022/06/25 09:10:40;;;;;;;13.07;2.50;;;27.20;66.50;;;;;;5072367;28;20441;-65
2022/06/25 09:13:08;;;;;;;9.80;2.78;;;27.30;64.90;;;;;;5072099;28;20493;-66
2022/06/25 09:15:41;;;;;;;11.07;2.25;;;27.30;65.00;;;;;;5071725;28;20053;-64
2022/06/25 09:18:08;;;;;;;12.90;3.08;;;27.40;64.90;;;;;;5072222;28;20078;-64
2022/06/25 09:20:34;;;;;;;10.77;2.60;;;27.50;65.60;;;;;;5072203;28;20459;-65
2022/06/25 09:23:05;;;;;;;11.52;2.42;;;27.50;66.00;;;;;;5072782;28;20103;-66
2022/06/25 09:25:34;;;;;;;13.23;2.40;;;27.60;64.00;;;;;;5072021;28;20090;-67
2022/06/25 09:28:00;;;;;;;12.07;2.30;;;27.60;64.10;;;;;;5072231;28;20076;-66
2022/06/25 09:30:29;;;;;;;11.95;2.10;;;27.60;65.30;;;;;;5072425;28;20028;-66
2022/06/25 09:33:00;;;;;;;11.85;2.40;;;27.70;64.50;;;;;;5072357;28;20101;-65
2022/06/25 09:35:43;;;;;;;7.70;1.95;;;27.70;63.90;;;;;;5072762;28;20119;-64
2022/06/25 09:38:19;;;;;;;8.75;2.20;;;27.80;62.60;;;;;;5072562;28;20537;-64
2022/06/25 09:40:59;;;;;;;11.18;2.50;;;27.80;61.00;;;;;;5072535;28;20463;-64
2022/06/25 09:43:28;;;;;;;10.82;2.30;;;27.80;61.10;;;;;;5072313;28;20040;-65
2022/06/25 09:45:56;;;;;;;7.75;2.30;;;27.80;60.70;;;;;;5072400;28;20467;-64
2022/06/25 09:48:23;;;;;;;10.23;2.15;;;27.80;59.70;;;;;;5072477;28;20036;-66
2022/06/25 09:51:07;;;;;;;12.27;2.03;;;27.80;59.70;;;;;;5072087;28;20075;-63
2022/06/25 09:53:34;;;;;;;7.10;1.67;;;27.80;58.90;;;;;;5072263;28;20037;-65
2022/06/25 09:56:02;;;;;;;9.63;1.73;;;27.80;58.60;;;;;;5071933;28;20041;-64
2022/06/25 09:58:30;;;;;;;10.20;2.28;;;27.80;57.60;;;;;;5071987;28;20564;-62
2022/06/25 10:00:56;;;;;;;27.08;2.72;;;27.80;58.90;;;;;;5072293;28;20036;-63
2022/06/25 10:03:24;;;;;;;10.10;2.13;;;27.80;59.40;;;;;;5071923;28;20444;-63
2022/06/25 10:05:52;;;;;;;6.72;1.67;;;27.80;58.60;;;;;;5072256;28;20035;-63
2022/06/25 10:08:20;;;;;;;6.75;1.77;;;27.90;58.90;;;;;;5071755;28;20478;-64
2022/06/25 10:10:50;;;;;;;9.30;2.17;;;27.90;58.80;;;;;;5071845;28;20043;-64
2022/06/25 10:13:16;;;;;;;9.52;1.95;;;28.00;58.30;;;;;;5071929;28;20033;-63
2022/06/25 10:15:44;;;;;;;13.02;2.47;;;28.00;58.90;;;;;;5071927;28;20115;-65
2022/06/25 10:18:10;;;;;;;6.68;1.75;;;28.10;60.40;;;;;;5071797;28;20032;-63
2022/06/25 10:20:37;;;;;;;7.88;2.00;;;28.10;56.70;;;;;;5071737;28;20095;-63
2022/06/25 10:23:05;;;;;;;8.63;2.20;;;28.20;56.90;;;;;;5071662;28;20037;-64
2022/06/25 10:25:32;;;;;;;9.05;2.78;;;28.20;58.60;;;;;;5071688;28;20363;-67
2022/06/25 10:28:04;;;;;;;7.50;1.50;;;28.20;58.60;;;;;;5074014;28;20453;-64
2022/06/25 10:30:47;;;;;;;8.85;1.98;;;28.20;59.00;;;;;;5075494;28;20032;-67
2022/06/25 10:33:17;;;;;;;8.80;1.90;;;28.30;59.10;;;;;;5075356;28;20051;-63
2022/06/25 10:35:44;;;;;;;6.45;1.80;;;28.40;58.10;;;;;;5075760;28;20391;-63
2022/06/25 10:38:16;;;;;;;6.05;1.90;;;28.40;57.20;;;;;;5075751;28;20028;-63
2022/06/25 10:40:54;;;;;;;10.15;1.80;;;28.50;57.50;;;;;;5075632;28;20089;-63
2022/06/25 10:43:54;;;;;;;9.88;2.35;;;28.50;56.40;;;;;;5075153;28;20475;-64
2022/06/25 10:46:26;;;;;;;15.18;1.95;;;28.60;56.90;;;;;;5075294;28;20032;-67
2022/06/25 10:48:58;;;;;;;9.00;1.70;;;28.60;56.30;;;;;;5075478;28;20055;-68
2022/06/25 10:51:31;;;;;;;5.93;1.35;;;28.60;55.80;;;;;;5075542;28;20039;-64
2022/06/25 10:54:01;;;;;;;9.48;2.08;;;28.60;55.80;;;;;;5074775;28;20029;-64
2022/06/25 10:56:43;;;;;;;8.52;2.00;;;28.70;55.60;;;;;;5074918;28;20449;-63
2022/06/25 10:59:09;;;;;;;7.57;1.67;;;28.70;54.90;;;;;;5075165;28;20062;-68
2022/06/25 11:01:35;;;;;;;9.60;1.88;;;28.80;54.40;;;;;;5075109;28;20448;-64
2022/06/25 11:04:03;;;;;;;7.30;2.00;;;28.80;54.50;;;;;;5073793;28;20503;-62
2022/06/25 11:06:38;;;;;;;10.93;1.70;;;28.90;55.90;;;;;;5072255;28;20530;-63
2022/06/25 11:09:13;;;;;;;9.02;1.98;;;28.90;55.50;;;;;;5071537;28;20041;-63
2022/06/25 11:11:40;;;;;;;11.20;1.90;;;29.00;55.80;;;;;;5072191;28;20485;-64
2022/06/25 11:14:15;;;;;;;4.90;1.60;;;29.10;55.60;;;;;;5074521;28;20115;-64
2022/06/25 11:16:41;;;;;;;8.63;2.20;;;29.10;55.10;;;;;;5074598;28;20068;-67
2022/06/25 11:19:07;;;;;;;9.50;2.38;;;29.20;55.10;;;;;;5074511;28;20083;-64
2022/06/25 11:21:38;;;;;;;9.20;1.35;;;29.20;54.70;;;;;;5074895;28;20486;-64
2022/06/25 11:24:13;;;;;;;6.25;1.48;;;29.20;52.50;;;;;;5074761;28;20572;-65
2022/06/25 11:29:37;;;;;;;8.50;1.50;;;29.30;51.70;;;;;;5074381;28;20042;-64
2022/06/25 11:32:03;;;;;;;4.32;1.83;;;29.30;51.40;;;;;;5074367;28;20124;-63
2022/06/25 11:34:29;;;;;;;4.30;1.20;;;29.20;50.70;;;;;;5074428;28;20042;-64
2022/06/25 11:37:00;;;;;;;6.43;1.85;;;29.30;51.60;;;;;;5074192;28;20071;-67
2022/06/25 11:39:27;;;;;;;7.57;1.85;;;29.30;52.40;;;;;;5074070;28;20025;-65
2022/06/25 11:41:54;;;;;;;7.47;1.70;;;29.30;51.50;;;;;;5074250;28;20557;-63
2022/06/25 11:44:20;;;;;;;6.63;1.50;;;29.30;51.40;;;;;;5074101;28;20436;-63
2022/06/25 11:46:48;;;;;;;7.43;1.70;;;29.30;51.90;;;;;;5070711;28;20103;-64
2022/06/25 11:49:14;;;;;;;7.63;1.73;;;29.30;52.20;;;;;;5071202;28;20139;-65
2022/06/25 11:51:45;;;;;;;9.13;1.60;;;29.30;51.40;;;;;;5071777;28;20028;-64
2022/06/25 11:54:11;;;;;;;10.00;2.45;;;29.30;52.00;;;;;;5073894;28;20406;-66
2022/06/25 11:56:37;;;;;;;8.15;1.88;;;29.30;52.00;;;;;;5073649;28;20029;-64
2022/06/25 11:59:02;;;;;;;8.57;1.95;;;29.30;52.20;;;;;;5073631;28;20040;-64
2022/06/25 12:01:29;;;;;;;6.18;1.63;;;29.30;52.40;;;;;;5073218;28;20517;-64
2022/06/25 12:03:56;;;;;;;8.50;1.35;;;29.20;53.00;;;;;;5073780;28;20475;-64
2022/06/25 12:06:23;;;;;;;11.32;2.05;;;29.20;51.70;;;;;;5073797;28;20036;-62
2022/06/25 12:08:50;;;;;;;11.68;1.92;;;29.30;52.60;;;;;;5073437;28;20473;-63
2022/06/25 12:11:17;;;;;;;5.88;1.77;;;29.30;53.20;;;;;;5073422;28;20075;-65
2022/06/25 12:13:43;;;;;;;6.28;1.98;;;29.40;51.70;;;;;;5073336;28;20040;-64
2022/06/25 12:16:09;;;;;;;5.45;1.40;;;29.40;50.90;;;;;;5073152;28;20048;-64
2022/06/25 12:18:38;;;;;;;10.98;1.38;;;29.50;50.20;;;;;;5073527;28;20078;-63
2022/06/25 12:21:05;;;;;;;11.38;1.50;;;29.50;50.70;;;;;;5073393;28;20037;-62
2022/06/25 12:23:57;;;;;;;6.93;1.50;;;29.50;50.90;;;;;;5071486;28;20813;-64
2022/06/25 12:26:43;;;;;;;7.25;1.88;;;29.60;51.60;;;;;;5070756;28;20028;-64
2022/06/25 12:29:15;;;;;;;5.15;1.50;;;29.70;52.00;;;;;;5072865;28;20052;-62
2022/06/25 12:31:42;;;;;;;5.18;1.70;;;29.80;51.30;;;;;;5073062;28;20024;-63
2022/06/25 12:34:08;;;;;;;5.82;1.40;;;29.80;51.70;;;;;;5073104;28;20036;-63
2022/06/25 12:36:38;;;;;;;9.50;1.55;;;29.80;49.80;;;;;;5071141;28;20024;-64
2022/06/25 12:39:34;;;;;;;5.47;1.40;;;29.70;50.00;;;;;;5070346;28;20036;-64
2022/06/25 12:42:09;;;;;;;4.05;1.38;;;29.70;49.80;;;;;;5066969;28;20040;-66
2022/06/25 12:44:44;;;;;;;6.30;1.90;;;29.70;49.20;;;;;;5072747;28;20040;-63
2022/06/25 12:47:12;;;;;;;3.60;1.38;;;29.70;50.10;;;;;;5072683;28;20399;-67
2022/06/25 12:49:52;;;;;;;3.90;1.25;;;29.70;51.10;;;;;;5072382;28;20055;-66
2022/06/25 12:52:34;;;;;;;9.52;2.05;;;29.70;51.50;;;;;;5072741;28;20028;-63